sensor_id;sensor_type;location;lat;lon;timestamp;pressure;altitude;pressure_sealevel;temperature;humidity
68889;BME280;55930;47.412;8.790;2022-11-23T00:01:33;93400.56;;;4.34;99.81
68889;BME280;55930;47.412;8.790;2022-11-23T00:04:54;93393.16;;;4.23;100.00
68889;BME280;55930;47.412;8.790;2022-11-23T00:08:14;93394.38;;;4.22;100.00
68889;BME280;55930;47.412;8.790;2022-11-23T00:11:35;93394.38;;;4.22;100.00
68889;BME280;55930;47.412;8.790;2022-11-23T00:14:55;93385.97;;;4.09;100.00
68889;BME280;55930;47.412;8.790;2022-11-23T00:18:18;93393.53;;;4.07;100.00
68889;BME280;55930;47.412;8.790;2022-11-23T00:21:41;93395.66;;;3.94;100.00
68889;BME280;55930;47.412;8.790;2022-11-23T00:25:02;93383.28;;;3.85;100.00
68889;BME280;55930;47.412;8.790;2022-11-23T00:28:25;93386.97;;;3.79;100.00
68889;BME280;55930;47.412;8.790;2022-11-23T00:31:45;93388.44;;;3.71;100.00
68889;BME280;55930;47.412;8.790;2022-11-23T00:35:06;93389.91;;;3.72;100.00
68889;BME280;55930;47.412;8.790;2022-11-23T00:38:27;93391.78;;;3.80;100.00
68889;BME280;55930;47.412;8.790;2022-11-23T00:41:48;93394.41;;;3.71;100.00
68889;BME280;55930;47.412;8.790;2022-11-23T00:45:08;93387.31;;;3.63;100.00
68889;BME280;55930;47.412;8.790;2022-11-23T00:48:32;93385.53;;;3.69;100.00
68889;BME280;55930;47.412;8.790;2022-11-23T00:51:54;93385.53;;;3.69;100.00
68889;BME280;55930;47.412;8.790;2022-11-23T00:55:15;93388.34;;;3.56;100.00
68889;BME280;55930;47.412;8.790;2022-11-23T00:58:35;93394.56;;;3.68;100.00
68889;BME280;55930;47.412;8.790;2022-11-23T01:01:57;93393.00;;;3.52;100.00
68889;BME280;55930;47.412;8.790;2022-11-23T01:05:18;93383.56;;;3.45;100.00
68889;BME280;55930;47.412;8.790;2022-11-23T01:08:39;93388.50;;;3.53;100.00
68889;BME280;55930;47.412;8.790;2022-11-23T01:12:02;93387.75;;;3.52;100.00
68889;BME280;55930;47.412;8.790;2022-11-23T01:15:22;93390.13;;;3.41;100.00
68889;BME280;55930;47.412;8.790;2022-11-23T01:18:43;93387.53;;;3.41;100.00
68889;BME280;55930;47.412;8.790;2022-11-23T01:22:03;93388.34;;;3.56;100.00
68889;BME280;55930;47.412;8.790;2022-11-23T01:25:24;93394.34;;;3.47;100.00
68889;BME280;55930;47.412;8.790;2022-11-23T01:28:44;93393.50;;;3.32;100.00
68889;BME280;55930;47.412;8.790;2022-11-23T01:32:07;93391.94;;;3.17;100.00
68889;BME280;55930;47.412;8.790;2022-11-23T01:35:27;93385.38;;;3.12;100.00
68889;BME280;55930;47.412;8.790;2022-11-23T01:38:48;93389.19;;;3.02;100.00
68889;BME280;55930;47.412;8.790;2022-11-23T01:42:09;93397.16;;;2.89;100.00
68889;BME280;55930;47.412;8.790;2022-11-23T01:45:40;93384.81;;;2.81;100.00
68889;BME280;55930;47.412;8.790;2022-11-23T01:49:03;93393.25;;;2.76;100.00
68889;BME280;55930;47.412;8.790;2022-11-23T01:52:25;93393.69;;;2.74;100.00
68889;BME280;55930;47.412;8.790;2022-11-23T01:55:47;93395.41;;;2.59;100.00
68889;BME280;55930;47.412;8.790;2022-11-23T01:59:15;93385.81;;;2.47;100.00
68889;BME280;55930;47.412;8.790;2022-11-23T02:02:37;93392.63;;;2.35;100.00
68889;BME280;55930;47.412;8.790;2022-11-23T02:06:04;93396.72;;;2.54;100.00
68889;BME280;55930;47.412;8.790;2022-11-23T02:09:29;93393.38;;;2.54;100.00
68889;BME280;55930;47.412;8.790;2022-11-23T02:12:52;93393.06;;;2.43;100.00
68889;BME280;55930;47.412;8.790;2022-11-23T02:16:13;93387.50;;;2.31;100.00
68889;BME280;55930;47.412;8.790;2022-11-23T02:20:08;93389.25;;;2.25;100.00
68889;BME280;55930;47.412;8.790;2022-11-23T02:27:03;93392.69;;;2.04;100.00
68889;BME280;55930;47.412;8.790;2022-11-23T02:30:28;93388.44;;;1.88;100.00
68889;BME280;55930;47.412;8.790;2022-11-23T02:33:49;93395.81;;;1.81;100.00
68889;BME280;55930;47.412;8.790;2022-11-23T02:37:09;93397.44;;;1.87;100.00
68889;BME280;55930;47.412;8.790;2022-11-23T02:40:34;93398.47;;;1.90;100.00
68889;BME280;55930;47.412;8.790;2022-11-23T02:43:55;93393.25;;;1.90;100.00
68889;BME280;55930;47.412;8.790;2022-11-23T02:47:16;93398.44;;;1.81;100.00
68889;BME280;55930;47.412;8.790;2022-11-23T02:50:38;93391.41;;;1.69;100.00
68889;BME280;55930;47.412;8.790;2022-11-23T02:54:01;93389.09;;;1.71;100.00
68889;BME280;55930;47.412;8.790;2022-11-23T02:57:22;93388.78;;;1.69;100.00
68889;BME280;55930;47.412;8.790;2022-11-23T03:00:45;93390.72;;;1.77;100.00
68889;BME280;55930;47.412;8.790;2022-11-23T03:04:06;93391.75;;;1.80;100.00
68889;BME280;55930;47.412;8.790;2022-11-23T03:07:26;93386.31;;;1.65;100.00
68889;BME280;55930;47.412;8.790;2022-11-23T03:10:47;93391.66;;;1.62;100.00
68889;BME280;55930;47.412;8.790;2022-11-23T03:14:07;93385.41;;;1.59;100.00
68889;BME280;55930;47.412;8.790;2022-11-23T03:17:28;93391.81;;;1.58;100.00
68889;BME280;55930;47.412;8.790;2022-11-23T03:20:48;93381.03;;;1.56;100.00
68889;BME280;55930;47.412;8.790;2022-11-23T03:24:09;93375.38;;;1.58;100.00
68889;BME280;55930;47.412;8.790;2022-11-23T03:27:29;93377.28;;;1.57;100.00
68889;BME280;55930;47.412;8.790;2022-11-23T03:30:52;93373.94;;;1.57;100.00
68889;BME280;55930;47.412;8.790;2022-11-23T03:34:13;93370.16;;;1.58;100.00
68889;BME280;55930;47.412;8.790;2022-11-23T03:37:33;93364.44;;;1.41;100.00
68889;BME280;55930;47.412;8.790;2022-11-23T03:40:53;93361.38;;;1.42;100.00
68889;BME280;55930;47.412;8.790;2022-11-23T03:44:16;93355.84;;;1.40;100.00
68889;BME280;55930;47.412;8.790;2022-11-23T03:47:37;93350.41;;;1.26;100.00
68889;BME280;55930;47.412;8.790;2022-11-23T03:50:57;93361.34;;;1.33;100.00
68889;BME280;55930;47.412;8.790;2022-11-23T03:54:17;93354.59;;;1.23;100.00
68889;BME280;55930;47.412;8.790;2022-11-23T03:57:38;93361.53;;;1.17;100.00
68889;BME280;55930;47.412;8.790;2022-11-23T04:00:58;93356.63;;;0.97;100.00
68889;BME280;55930;47.412;8.790;2022-11-23T04:04:18;93352.03;;;1.01;100.00
68889;BME280;55930;47.412;8.790;2022-11-23T04:07:39;93351.88;;;1.05;100.00
68889;BME280;55930;47.412;8.790;2022-11-23T04:11:01;93353.94;;;0.88;100.00
68889;BME280;55930;47.412;8.790;2022-11-23T04:14:22;93350.81;;;0.93;100.00
68889;BME280;55930;47.412;8.790;2022-11-23T04:17:42;93355.97;;;0.84;100.00
68889;BME280;55930;47.412;8.790;2022-11-23T04:21:03;93361.25;;;0.93;100.00
68889;BME280;55930;47.412;8.790;2022-11-23T04:24:23;93353.66;;;0.86;100.00
68889;BME280;55930;47.412;8.790;2022-11-23T04:27:44;93343.81;;;0.90;100.00
68889;BME280;55930;47.412;8.790;2022-11-23T04:31:04;93338.19;;;0.92;100.00
68889;BME280;55930;47.412;8.790;2022-11-23T04:34:27;93339.88;;;0.64;100.00
68889;BME280;55930;47.412;8.790;2022-11-23T04:37:48;93335.34;;;0.55;100.00
68889;BME280;55930;47.412;8.790;2022-11-23T04:41:11;93328.84;;;0.60;100.00
68889;BME280;55930;47.412;8.790;2022-11-23T04:44:31;93328.94;;;0.56;100.00
68889;BME280;55930;47.412;8.790;2022-11-23T04:47:52;93333.22;;;0.63;100.00
68889;BME280;55930;47.412;8.790;2022-11-23T04:51:15;93320.81;;;0.54;100.00
68889;BME280;55930;47.412;8.790;2022-11-23T04:54:36;93316.81;;;0.62;100.00
68889;BME280;55930;47.412;8.790;2022-11-23T04:57:56;93304.31;;;0.57;100.00
68889;BME280;55930;47.412;8.790;2022-11-23T05:01:17;93310.19;;;0.49;100.00
68889;BME280;55930;47.412;8.790;2022-11-23T05:04:39;93300.38;;;0.53;100.00
68889;BME280;55930;47.412;8.790;2022-11-23T05:08:05;93307.38;;;0.56;100.00
68889;BME280;55930;47.412;8.790;2022-11-23T05:11:25;93305.09;;;0.45;100.00
68889;BME280;55930;47.412;8.790;2022-11-23T05:14:48;93301.28;;;0.37;100.00
68889;BME280;55930;47.412;8.790;2022-11-23T05:18:09;93307.16;;;0.28;100.00
68889;BME280;55930;47.412;8.790;2022-11-23T05:21:30;93316.69;;;0.44;100.00
68889;BME280;55930;47.412;8.790;2022-11-23T05:24:50;93312.69;;;0.52;100.00
68889;BME280;55930;47.412;8.790;2022-11-23T05:28:17;93305.19;;;0.54;100.00
68889;BME280;55930;47.412;8.790;2022-11-23T05:31:38;93303.47;;;0.60;100.00
68889;BME280;55930;47.412;8.790;2022-11-23T05:34:58;93299.66;;;0.52;100.00
68889;BME280;55930;47.412;8.790;2022-11-23T05:38:21;93301.88;;;0.41;100.00
68889;BME280;55930;47.412;8.790;2022-11-23T05:41:44;93296.53;;;0.23;100.00
68889;BME280;55930;47.412;8.790;2022-11-23T05:45:07;93298.94;;;0.17;100.00
68889;BME280;55930;47.412;8.790;2022-11-23T05:48:30;93300.38;;;0.18;100.00
68889;BME280;55930;47.412;8.790;2022-11-23T05:51:50;93294.69;;;0.11;100.00
68889;BME280;55930;47.412;8.790;2022-11-23T05:55:11;93300.84;;;0.04;100.00
68889;BME280;55930;47.412;8.790;2022-11-23T05:58:31;93303.66;;;0.10;100.00
68889;BME280;55930;47.412;8.790;2022-11-23T06:01:54;93305.00;;;0.14;100.00
68889;BME280;55930;47.412;8.790;2022-11-23T06:05:14;93304.50;;;0.07;100.00
68889;BME280;55930;47.412;8.790;2022-11-23T06:08:35;93296.69;;;0.07;100.00
68889;BME280;55930;47.412;8.790;2022-11-23T06:11:55;93304.59;;;0.03;100.00
68889;BME280;55930;47.412;8.790;2022-11-23T06:15:18;93305.53;;;0.09;100.00
68889;BME280;55930;47.412;8.790;2022-11-23T06:18:39;93303.53;;;0.13;100.00
68889;BME280;55930;47.412;8.790;2022-11-23T06:21:59;93302.06;;;-0.22;100.00
68889;BME280;55930;47.412;8.790;2022-11-23T06:25:24;93305.81;;;-0.23;100.00
68889;BME280;55930;47.412;8.790;2022-11-23T06:28:45;93305.38;;;-0.09;100.00
68889;BME280;55930;47.412;8.790;2022-11-23T06:32:07;93304.28;;;0.01;100.00
68889;BME280;55930;47.412;8.790;2022-11-23T06:35:30;93309.22;;;-0.01;100.00
68889;BME280;55930;47.412;8.790;2022-11-23T06:38:50;93299.72;;;-0.08;100.00
68889;BME280;55930;47.412;8.790;2022-11-23T06:42:11;93311.38;;;0.00;100.00
68889;BME280;55930;47.412;8.790;2022-11-23T06:45:32;93318.19;;;-0.02;100.00
68889;BME280;55930;47.412;8.790;2022-11-23T06:48:52;93316.69;;;0.10;100.00
68889;BME280;55930;47.412;8.790;2022-11-23T06:52:13;93314.81;;;0.10;100.00
68889;BME280;55930;47.412;8.790;2022-11-23T06:55:33;93324.00;;;0.02;100.00
68889;BME280;55930;47.412;8.790;2022-11-23T06:58:53;93321.53;;;-0.02;100.00
68889;BME280;55930;47.412;8.790;2022-11-23T07:02:14;93324.09;;;0.11;100.00
68889;BME280;55930;47.412;8.790;2022-11-23T07:05:37;93326.59;;;0.15;100.00
68889;BME280;55930;47.412;8.790;2022-11-23T07:08:57;93333.63;;;0.27;100.00
68889;BME280;55930;47.412;8.790;2022-11-23T07:12:18;93335.25;;;0.12;100.00
68889;BME280;55930;47.412;8.790;2022-11-23T07:15:40;93338.84;;;0.27;100.00
68889;BME280;55930;47.412;8.790;2022-11-23T07:19:02;93346.72;;;0.14;100.00
68889;BME280;55930;47.412;8.790;2022-11-23T07:22:23;93348.31;;;0.33;100.00
68889;BME280;55930;47.412;8.790;2022-11-23T07:25:43;93355.56;;;0.17;100.00
68889;BME280;55930;47.412;8.790;2022-11-23T07:29:06;93358.97;;;0.39;100.00
68889;BME280;55930;47.412;8.790;2022-11-23T07:32:29;93367.41;;;0.65;100.00
68889;BME280;55930;47.412;8.790;2022-11-23T07:35:49;93363.94;;;5.17;88.23
68889;BME280;55930;47.412;8.790;2022-11-23T07:39:10;93361.91;;;4.35;93.51
68889;BME280;55930;47.412;8.790;2022-11-23T07:42:30;93363.56;;;11.83;62.56
68889;BME280;55930;47.412;8.790;2022-11-23T07:45:51;93363.16;;;15.00;47.64
68889;BME280;55930;47.412;8.790;2022-11-23T07:49:13;93361.41;;;14.36;46.17
68889;BME280;55930;47.412;8.790;2022-11-23T07:52:38;93368.75;;;15.90;43.20
68889;BME280;55930;47.412;8.790;2022-11-23T07:56:01;93357.16;;;18.26;37.91
68889;BME280;55930;47.412;8.790;2022-11-23T07:59:21;93349.59;;;19.26;36.40
68889;BME280;55930;47.412;8.790;2022-11-23T08:02:44;93346.84;;;19.41;35.60
68889;BME280;55930;47.412;8.790;2022-11-23T08:06:08;93349.16;;;21.28;31.84
68889;BME280;55930;47.412;8.790;2022-11-23T08:09:29;93345.28;;;21.48;31.62
68889;BME280;55930;47.412;8.790;2022-11-23T08:12:49;93330.50;;;20.04;32.60
68889;BME280;55930;47.412;8.790;2022-11-23T08:16:10;93340.72;;;19.80;33.94
68889;BME280;55930;47.412;8.790;2022-11-23T08:19:32;93339.06;;;22.55;30.25
68889;BME280;55930;47.412;8.790;2022-11-23T08:22:53;93334.38;;;21.29;30.81
68889;BME280;55930;47.412;8.790;2022-11-23T08:26:15;93326.53;;;22.60;28.72
68889;BME280;55930;47.412;8.790;2022-11-23T08:29:35;93326.22;;;22.46;29.38
68889;BME280;55930;47.412;8.790;2022-11-23T08:33:01;93320.59;;;20.73;31.42
68889;BME280;55930;47.412;8.790;2022-11-23T08:36:21;93326.09;;;17.57;36.84
68889;BME280;55930;47.412;8.790;2022-11-23T08:39:42;93322.47;;;13.37;45.89
68889;BME280;55930;47.412;8.790;2022-11-23T08:43:03;93331.31;;;12.22;51.07
68889;BME280;55930;47.412;8.790;2022-11-23T08:46:23;93324.97;;;11.76;52.94
68889;BME280;55930;47.412;8.790;2022-11-23T08:49:44;93324.50;;;11.01;55.66
68889;BME280;55930;47.412;8.790;2022-11-23T08:53:04;93323.16;;;10.78;57.16
68889;BME280;55930;47.412;8.790;2022-11-23T08:56:25;93320.69;;;10.17;58.95
68889;BME280;55930;47.412;8.790;2022-11-23T08:59:45;93317.53;;;11.34;56.93
68889;BME280;55930;47.412;8.790;2022-11-23T09:03:21;93310.91;;;11.16;57.19
68889;BME280;55930;47.412;8.790;2022-11-23T09:06:42;93324.91;;;11.52;55.10
68889;BME280;55930;47.412;8.790;2022-11-23T09:10:05;93320.66;;;11.38;58.33
68889;BME280;55930;47.412;8.790;2022-11-23T09:13:26;93320.53;;;13.70;51.89
68889;BME280;55930;47.412;8.790;2022-11-23T09:16:47;93320.22;;;13.41;53.22
68889;BME280;55930;47.412;8.790;2022-11-23T09:20:10;93322.84;;;14.50;50.74
68889;BME280;55930;47.412;8.790;2022-11-23T09:23:32;93332.91;;;13.99;48.70
68889;BME280;55930;47.412;8.790;2022-11-23T09:26:52;93332.31;;;15.12;47.51
68889;BME280;55930;47.412;8.790;2022-11-23T09:30:13;93334.13;;;13.34;51.66
68889;BME280;55930;47.412;8.790;2022-11-23T09:33:34;93341.06;;;12.62;51.48
68889;BME280;55930;47.412;8.790;2022-11-23T09:36:57;93331.94;;;13.70;49.25
68889;BME280;55930;47.412;8.790;2022-11-23T09:40:31;93334.50;;;13.76;46.97
68889;BME280;55930;47.412;8.790;2022-11-23T09:44:01;93349.06;;;15.12;43.35
68889;BME280;55930;47.412;8.790;2022-11-23T09:50:53;93350.13;;;14.83;43.11
68889;BME280;55930;47.412;8.790;2022-11-23T09:57:47;93348.72;;;13.09;48.05
68889;BME280;55930;47.412;8.790;2022-11-23T10:01:13;93353.16;;;14.21;45.66
68889;BME280;55930;47.412;8.790;2022-11-23T10:04:34;93349.44;;;16.05;39.75
68889;BME280;55930;47.412;8.790;2022-11-23T10:08:07;93344.53;;;19.37;32.97
68889;BME280;55930;47.412;8.790;2022-11-23T10:11:59;93340.81;;;20.65;31.58
68889;BME280;55930;47.412;8.790;2022-11-23T10:15:25;93333.44;;;20.99;30.25
68889;BME280;55930;47.412;8.790;2022-11-23T10:19:04;93340.00;;;21.23;29.72
68889;BME280;55930;47.412;8.790;2022-11-23T10:22:56;93338.25;;;21.35;29.04
68889;BME280;55930;47.412;8.790;2022-11-23T10:26:19;93322.59;;;20.73;29.13
68889;BME280;55930;47.412;8.790;2022-11-23T10:29:41;93329.84;;;20.20;30.87
68889;BME280;55930;47.412;8.790;2022-11-23T10:36:35;93320.78;;;19.83;31.04
68889;BME280;55930;47.412;8.790;2022-11-23T10:39:56;93319.69;;;22.49;28.06
68889;BME280;55930;47.412;8.790;2022-11-23T10:43:24;93317.50;;;19.68;30.24
68889;BME280;55930;47.412;8.790;2022-11-23T10:46:48;93323.00;;;22.01;28.01
68889;BME280;55930;47.412;8.790;2022-11-23T10:50:24;93321.59;;;20.43;29.51
68889;BME280;55930;47.412;8.790;2022-11-23T10:53:53;93314.75;;;18.10;35.17
68889;BME280;55930;47.412;8.790;2022-11-23T10:57:30;93315.97;;;15.02;39.20
68889;BME280;55930;47.412;8.790;2022-11-23T11:01:14;93319.03;;;17.97;35.61
68889;BME280;55930;47.412;8.790;2022-11-23T11:04:47;93308.59;;;19.58;30.93
68889;BME280;55930;47.412;8.790;2022-11-23T11:08:15;93301.22;;;21.72;28.57
68889;BME280;55930;47.412;8.790;2022-11-23T11:11:38;93296.59;;;21.83;28.36
68889;BME280;55930;47.412;8.790;2022-11-23T11:18:33;93296.25;;;20.46;31.17
68889;BME280;55930;47.412;8.790;2022-11-23T11:21:55;93294.44;;;20.66;28.78
68889;BME280;55930;47.412;8.790;2022-11-23T11:25:35;93283.84;;;21.12;29.69
68889;BME280;55930;47.412;8.790;2022-11-23T11:29:00;93273.59;;;20.49;28.49
68889;BME280;55930;47.412;8.790;2022-11-23T11:35:48;93259.81;;;16.83;30.03
68889;BME280;55930;47.412;8.790;2022-11-23T11:39:17;93273.16;;;18.56;30.31
68889;BME280;55930;47.412;8.790;2022-11-23T11:42:48;93274.94;;;16.73;32.02
68889;BME280;55930;47.412;8.790;2022-11-23T11:46:22;93270.38;;;17.86;30.35
68889;BME280;55930;47.412;8.790;2022-11-23T11:49:43;93265.97;;;16.06;32.98
68889;BME280;55930;47.412;8.790;2022-11-23T11:53:12;93261.13;;;15.77;33.59
68889;BME280;55930;47.412;8.790;2022-11-23T11:56:42;93272.66;;;16.85;32.45
68889;BME280;55930;47.412;8.790;2022-11-23T12:00:09;93261.19;;;16.41;32.97
68889;BME280;55930;47.412;8.790;2022-11-23T12:07:17;93257.13;;;15.62;34.20
68889;BME280;55930;47.412;8.790;2022-11-23T12:14:15;93246.91;;;14.85;35.35
68889;BME280;55930;47.412;8.790;2022-11-23T12:17:46;93250.94;;;15.33;35.29
68889;BME280;55930;47.412;8.790;2022-11-23T12:25:18;93252.22;;;14.99;36.15
68889;BME280;55930;47.412;8.790;2022-11-23T12:29:17;93255.81;;;14.28;37.91
68889;BME280;55930;47.412;8.790;2022-11-23T12:58:22;93238.69;;;19.18;30.29
68889;BME280;55930;47.412;8.790;2022-11-23T13:01:49;93233.00;;;23.74;23.15
68889;BME280;55930;47.412;8.790;2022-11-23T13:16:32;93231.81;;;26.19;19.44
68889;BME280;55930;47.412;8.790;2022-11-23T13:23:27;93235.31;;;16.07;31.29
68889;BME280;55930;47.412;8.790;2022-11-23T13:30:37;93236.75;;;13.52;37.98
68889;BME280;55930;47.412;8.790;2022-11-23T13:34:00;93227.72;;;12.91;41.46
68889;BME280;55930;47.412;8.790;2022-11-23T13:37:21;93224.53;;;11.69;43.55
68889;BME280;55930;47.412;8.790;2022-11-23T13:40:46;93225.63;;;11.85;43.20
68889;BME280;55930;47.412;8.790;2022-11-23T13:44:20;93227.63;;;10.84;45.53
68889;BME280;55930;47.412;8.790;2022-11-23T13:48:05;93221.84;;;10.85;46.13
68889;BME280;55930;47.412;8.790;2022-11-23T13:51:31;93220.16;;;10.82;44.21
68889;BME280;55930;47.412;8.790;2022-11-23T13:58:36;93213.06;;;10.03;47.01
68889;BME280;55930;47.412;8.790;2022-11-23T14:05:54;93221.59;;;9.34;51.10
68889;BME280;55930;47.412;8.790;2022-11-23T14:12:49;93221.59;;;9.51;51.46
68889;BME280;55930;47.412;8.790;2022-11-23T14:16:29;93219.91;;;9.42;52.05
68889;BME280;55930;47.412;8.790;2022-11-23T14:38:55;93211.75;;;8.96;52.85
68889;BME280;55930;47.412;8.790;2022-11-23T14:42:23;93204.75;;;8.70;53.79
68889;BME280;55930;47.412;8.790;2022-11-23T14:45:45;93199.22;;;8.57;52.48
68889;BME280;55930;47.412;8.790;2022-11-23T14:49:11;93207.41;;;8.70;54.26
68889;BME280;55930;47.412;8.790;2022-11-23T14:52:54;93206.63;;;8.48;53.76
68889;BME280;55930;47.412;8.790;2022-11-23T14:56:37;93204.75;;;7.89;55.43
68889;BME280;55930;47.412;8.790;2022-11-23T14:59:59;93192.53;;;7.97;57.19
68889;BME280;55930;47.412;8.790;2022-11-23T15:03:25;93186.34;;;8.11;55.78
68889;BME280;55930;47.412;8.790;2022-11-23T15:06:48;93189.66;;;7.95;55.08
68889;BME280;55930;47.412;8.790;2022-11-23T15:13:57;93204.94;;;7.80;55.04
68889;BME280;55930;47.412;8.790;2022-11-23T15:17:24;93194.78;;;7.67;56.84
68889;BME280;55930;47.412;8.790;2022-11-23T15:20:44;93201.50;;;7.68;58.24
68889;BME280;55930;47.412;8.790;2022-11-23T15:24:20;93194.03;;;7.61;56.88
68889;BME280;55930;47.412;8.790;2022-11-23T15:27:41;93211.84;;;7.29;59.69
68889;BME280;55930;47.412;8.790;2022-11-23T15:34:46;93222.19;;;7.33;63.57
68889;BME280;55930;47.412;8.790;2022-11-23T15:38:12;93219.09;;;7.34;63.34
68889;BME280;55930;47.412;8.790;2022-11-23T15:41:35;93216.91;;;7.33;60.47
68889;BME280;55930;47.412;8.790;2022-11-23T15:44:56;93221.94;;;7.30;60.96
68889;BME280;55930;47.412;8.790;2022-11-23T15:48:33;93223.13;;;7.29;59.53
68889;BME280;55930;47.412;8.790;2022-11-23T15:52:00;93225.78;;;7.35;59.77
68889;BME280;55930;47.412;8.790;2022-11-23T15:55:21;93232.78;;;7.07;59.63
68889;BME280;55930;47.412;8.790;2022-11-23T15:58:47;93242.50;;;6.95;64.35
68889;BME280;55930;47.412;8.790;2022-11-23T16:02:23;93239.56;;;6.87;62.23
68889;BME280;55930;47.412;8.790;2022-11-23T16:05:43;93246.88;;;7.04;62.99
68889;BME280;55930;47.412;8.790;2022-11-23T16:12:58;93276.75;;;6.95;61.42
68889;BME280;55930;47.412;8.790;2022-11-23T16:16:21;93292.50;;;6.84;61.67
68889;BME280;55930;47.412;8.790;2022-11-23T16:19:48;93299.88;;;6.80;62.87
68889;BME280;55930;47.412;8.790;2022-11-23T16:23:24;93298.06;;;6.91;62.44
68889;BME280;55930;47.412;8.790;2022-11-23T16:26:45;93317.53;;;6.94;63.66
68889;BME280;55930;47.412;8.790;2022-11-23T16:30:23;93318.53;;;6.56;65.54
68889;BME280;55930;47.412;8.790;2022-11-23T16:33:44;93339.69;;;6.41;68.32
68889;BME280;55930;47.412;8.790;2022-11-23T16:37:06;93357.13;;;6.39;72.18
68889;BME280;55930;47.412;8.790;2022-11-23T16:40:27;93350.78;;;6.31;68.44
68889;BME280;55930;47.412;8.790;2022-11-23T16:43:55;93339.19;;;6.23;71.97
68889;BME280;55930;47.412;8.790;2022-11-23T16:47:22;93344.56;;;5.78;76.22
68889;BME280;55930;47.412;8.790;2022-11-23T16:50:42;93361.88;;;5.85;77.96
68889;BME280;55930;47.412;8.790;2022-11-23T16:54:03;93387.41;;;5.64;82.11
68889;BME280;55930;47.412;8.790;2022-11-23T16:57:32;93427.41;;;5.68;83.85
68889;BME280;55930;47.412;8.790;2022-11-23T17:00:54;93428.06;;;5.63;84.70
68889;BME280;55930;47.412;8.790;2022-11-23T17:04:14;93432.31;;;5.46;87.70
68889;BME280;55930;47.412;8.790;2022-11-23T17:07:35;93448.00;;;5.41;89.49
68889;BME280;55930;47.412;8.790;2022-11-23T17:10:55;93469.06;;;5.17;92.80
68889;BME280;55930;47.412;8.790;2022-11-23T17:14:18;93483.38;;;5.16;96.37
68889;BME280;55930;47.412;8.790;2022-11-23T17:17:39;93481.41;;;5.25;94.06
68889;BME280;55930;47.412;8.790;2022-11-23T17:20:59;93486.84;;;4.98;97.03
68889;BME280;55930;47.412;8.790;2022-11-23T17:24:22;93496.88;;;5.09;97.83
68889;BME280;55930;47.412;8.790;2022-11-23T17:27:43;93505.44;;;4.94;97.01
68889;BME280;55930;47.412;8.790;2022-11-23T17:31:05;93509.63;;;5.01;96.94
68889;BME280;55930;47.412;8.790;2022-11-23T17:34:28;93513.88;;;4.98;96.81
68889;BME280;55930;47.412;8.790;2022-11-23T17:37:48;93516.19;;;4.96;97.61
68889;BME280;55930;47.412;8.790;2022-11-23T17:41:09;93534.06;;;4.92;98.20
68889;BME280;55930;47.412;8.790;2022-11-23T17:44:30;93535.78;;;4.95;99.04
68889;BME280;55930;47.412;8.790;2022-11-23T17:47:50;93540.03;;;4.93;100.00
68889;BME280;55930;47.412;8.790;2022-11-23T17:51:10;93559.59;;;4.92;100.00
68889;BME280;55930;47.412;8.790;2022-11-23T17:54:36;93565.03;;;4.79;100.00
68889;BME280;55930;47.412;8.790;2022-11-23T17:57:56;93578.81;;;4.65;100.00
68889;BME280;55930;47.412;8.790;2022-11-23T18:01:20;93591.53;;;4.57;100.00
68889;BME280;55930;47.412;8.790;2022-11-23T18:04:41;93607.31;;;4.57;100.00
68889;BME280;55930;47.412;8.790;2022-11-23T18:08:01;93608.31;;;4.60;100.00
68889;BME280;55930;47.412;8.790;2022-11-23T18:11:22;93626.28;;;4.52;100.00
68889;BME280;55930;47.412;8.790;2022-11-23T18:14:43;93632.84;;;4.48;100.00
68889;BME280;55930;47.412;8.790;2022-11-23T18:18:04;93652.13;;;4.54;100.00
68889;BME280;55930;47.412;8.790;2022-11-23T18:21:24;93663.47;;;4.60;100.00
68889;BME280;55930;47.412;8.790;2022-11-23T18:24:45;93656.66;;;4.44;100.00
68889;BME280;55930;47.412;8.790;2022-11-23T18:28:05;93657.69;;;4.47;100.00
68889;BME280;55930;47.412;8.790;2022-11-23T18:31:26;93677.47;;;4.57;100.00
68889;BME280;55930;47.412;8.790;2022-11-23T18:34:47;93683.63;;;4.54;100.00
68889;BME280;55930;47.412;8.790;2022-11-23T18:38:10;93692.81;;;4.58;100.00
68889;BME280;55930;47.412;8.790;2022-11-23T18:41:30;93692.97;;;4.46;100.00
68889;BME280;55930;47.412;8.790;2022-11-23T18:44:50;93698.06;;;4.49;100.00
68889;BME280;55930;47.412;8.790;2022-11-23T18:48:11;93705.66;;;4.47;100.00
68889;BME280;55930;47.412;8.790;2022-11-23T18:51:32;93698.53;;;4.30;100.00
68889;BME280;55930;47.412;8.790;2022-11-23T18:54:57;93717.19;;;4.41;100.00
68889;BME280;55930;47.412;8.790;2022-11-23T18:58:18;93720.97;;;4.49;100.00
68889;BME280;55930;47.412;8.790;2022-11-23T19:01:39;93735.44;;;4.44;100.00
68889;BME280;55930;47.412;8.790;2022-11-23T19:05:02;93747.66;;;4.47;100.00
68889;BME280;55930;47.412;8.790;2022-11-23T19:08:23;93745.75;;;4.75;100.00
68889;BME280;55930;47.412;8.790;2022-11-23T19:11:43;93768.66;;;4.66;100.00
68889;BME280;55930;47.412;8.790;2022-11-23T19:15:04;93779.19;;;4.75;100.00
68889;BME280;55930;47.412;8.790;2022-11-23T19:18:25;93794.34;;;4.80;100.00
68889;BME280;55930;47.412;8.790;2022-11-23T19:21:46;93809.41;;;4.70;100.00
68889;BME280;55930;47.412;8.790;2022-11-23T19:25:06;93811.72;;;4.68;100.00
68889;BME280;55930;47.412;8.790;2022-11-23T19:28:27;93831.84;;;4.71;100.00
68889;BME280;55930;47.412;8.790;2022-11-23T19:31:47;93824.56;;;4.75;100.00
68889;BME280;55930;47.412;8.790;2022-11-23T19:35:13;93840.91;;;4.79;100.00
68889;BME280;55930;47.412;8.790;2022-11-23T19:38:34;93844.25;;;4.80;100.00
68889;BME280;55930;47.412;8.790;2022-11-23T19:41:57;93847.63;;;4.89;100.00
68889;BME280;55930;47.412;8.790;2022-11-23T19:45:17;93849.81;;;4.91;100.00
68889;BME280;55930;47.412;8.790;2022-11-23T19:48:38;93859.47;;;4.94;100.00
68889;BME280;55930;47.412;8.790;2022-11-23T19:51:58;93870.53;;;4.98;100.00
68889;BME280;55930;47.412;8.790;2022-11-23T19:55:19;93874.63;;;5.08;100.00
68889;BME280;55930;47.412;8.790;2022-11-23T19:58:39;93880.03;;;5.14;100.00